Terminal Aerodrome Forecast
Issued by NWS

Home | Current Version | Previous Version | Text Only | Print | Product List | Glossary On
Versions: 1 2 3 4 5 6 7 8 9 10 11 12
000
FTUS44 KBMX 312300
TAFTOI
TAF
KTOI 312320Z 0100/0124 36004KT P6SM BKN100
      TEMPO 0108/0112 3SM BR
     FM011500 06004KT P6SM BKN150=

USA.gov is the U.S. government's official web portal to all federal, state and local government web resources and services.